Historyczne dane pomiarowe

Dodano dane terminowe – wersja testowa.

Dane z okresu 1951-2019

Wersja bazy: 1.34 [2019-03-16, lista zmian], aktualizacja planowana na 2019-04-15

Dane meteo z obszaru Polski uzyskane na podstawie danych udostępnionych przez Instytut Meteorologii i Gospodarki Wodnej – Państwowy Instytut Badawczy.

 

Wybierz Datę:    

       

TemperaturaWilgotnośćWiatrCiśnienieOpadyŚniegCzas trwania zjawisk
 Stacja t tx tn tng RH VA  wxwx mslp ppp RRR   cm mm wxwxwxwxwxwxwx
1999-08-14 14.8 22.0 8.2 7.0-- 2.7 6.7---- 0.0------------
1999-08-13 15.3 20.8 10.8 10.2-- 3.7 6.0---- 0.0------------
1999-08-12 16.6 21.9 14.0 13.5-- 3.7 8.7---- 0.0------------
1999-08-11 21.0 25.2 17.2 14.8-- 2.7 6.7---- 0.0------------
1999-08-10 19.8 30.0 13.6 12.5-- 3.7 7.0---- 3.0------------
1999-08-09 23.4 31.0 16.2 14.7-- 2.7 5.7---- 1.2------------
1999-08-08 23.9 29.0 19.0 17.2-- 3.0 4.0---- 0.0------------
1999-08-07 21.3 29.0 12.0 8.6-- 2.0 3.3---- 0.0------------
1999-08-06 20.4 27.2 14.2 10.0-- 4.7 7.3---- 0.0------------
1999-08-05 18.6 27.2 9.0 5.5-- 1.3 1.0---- 9.5------------
1999-08-04 17.7 25.6 9.5 6.2-- 2.0 3.7---- 0.0------------
1999-08-03 18.7 26.0 12.7 7.7-- 2.7 5.7---- 0.0------------
1999-08-02 17.6 26.4 12.2 6.6-- 4.0 5.3---- 0.0------------
1999-08-01 18.5 25.5 9.6 4.5-- 3.3 4.3---- 0.0------------
1999-07-31 18.3 26.0 9.6 5.0-- 2.0 4.0---- 0.0------------
1999-07-30 17.9 25.0 9.5 6.0-- 2.3 4.3---- 0.0------------
1999-07-29 17.9 24.1 10.5 7.2-- 1.7 5.3---- 0.0------------
1999-07-28 17.5 24.4 13.8 7.0-- 2.7 2.3---- 0.0------------
1999-07-27 19.1 24.5 16.0 9.2-- 3.0 7.0---- 0.0------------
1999-07-26 19.9 26.6 11.5 3.0-- 1.3 4.3---- 0.0------------
1999-07-25 19.1 25.6 9.5 2.8-- 1.0 4.3---- 0.0------------
1999-07-24 16.9 22.5 12.4 4.5-- 2.3 5.0---- 0.0------------
1999-07-23 15.8 19.8 12.5 4.0-- 4.3 1.7---- 3.3------------
1999-07-22 20.6 26.2 17.8 9.0-- 3.3 6.7---- 0.0------------
1999-07-21 22.8 29.0 15.7 8.0-- 2.7 8.0---- 0.5------------
1999-07-20 22.0 29.5 13.7 6.8-- 1.0 2.3---- 0.0------------
1999-07-19 20.3 28.2 13.8 6.2-- 2.7 5.0---- 0.9------------
1999-07-18 18.6 25.7 11.4 5.0-- 2.0 3.7---- 0.0------------
1999-07-17 17.4 23.6 9.3 3.5-- 1.3 3.7---- 0.0------------
1999-07-16 15.4 20.6 10.7 4.5-- 4.0 5.0---- 4.1------------
1999-07-15 17.5 21.5 15.0 10.5-- 4.0 10.0---- 4.1------------
1999-07-14 20.8 27.0 17.5 10.6-- 4.0 5.7---- 12.6------------
1999-07-13 20.6 27.7 15.5 10.0-- 4.0 3.7---- 9.0------------
1999-07-12 21.9 28.3 15.0 8.0-- 2.0 5.7---- 0.0------------
1999-07-11 19.9 26.0 14.0 8.8-- 1.3 6.3---- 0.0------------
1999-07-10 20.0 25.2 16.5 10.5-- 2.3 7.3---- 0.0------------
1999-07-09 19.2 23.7 15.0 12.5-- 2.7 5.7---- 0.0------------
1999-07-08 18.2 21.8 15.5 12.5-- 4.3 5.7---- 1.6------------
1999-07-07 22.6 27.7 19.0 13.7-- 2.7 5.7---- 14.2------------
1999-07-06 25.3 32.0 16.8 10.7-- 0.7 5.7---- 0.0------------
1999-07-05 25.2 33.3 15.5 9.7-- 1.3 3.0---- 0.0------------
1999-07-04 23.4 31.6 13.0 7.5-- 1.3 4.3---- 0.0------------
1999-07-03 20.3 26.0 14.6 9.0-- 2.3 4.3---- 0.0------------
1999-07-02 20.2 25.0 15.2 10.2-- 2.3 6.3---- 0.0------------
1999-07-01 20.0 25.7 12.0 6.7-- 3.0 2.0---- 0.0------------
1999-06-30 19.7 24.6 12.5 6.0-- 1.3 3.0---- 0.0------------
1999-06-29 18.6 24.0 15.0 10.2-- 4.0 4.0---- 0.0------------
1999-06-28 20.9 27.8 13.0 7.0-- 1.3 4.0---- 0.0------------
1999-06-27 18.9 25.7 11.2 5.5-- 1.3 7.0---- 0.0------------
1999-06-26 15.7 23.0 7.5 2.3-- 3.0 3.0---- 0.0------------
1999-06-25 13.9 17.8 10.6 6.6-- 4.0 2.3---- 0.2------------
1999-06-24 12.0 13.7 10.5 7.0-- 4.7 6.3---- 3.8------------
1999-06-23 10.2 11.8 9.0 5.0-- 8.0 9.3---- 12.0------------
1999-06-22 13.7 17.8 11.8 9.0-- 7.3 7.7---- 41.6------------
1999-06-21 18.1 23.8 15.1 10.7-- 5.0 2.3---- 15.0------------
1999-06-20 18.4 22.6 15.5 11.5-- 3.3 4.3---- 0.0------------
1999-06-19 18.8 24.5 13.5 9.0-- 2.7 5.0---- 0.0------------
1999-06-18 17.4 20.8 15.2 12.7-- 5.7 3.7---- 7.3------------
1999-06-17 18.9 22.0 17.2 13.3-- 3.7 3.3---- 0.0------------
1999-06-16 18.8 22.7 16.4 13.0-- 5.0 5.7---- 7.3------------
237.9 ms

 

Źródłem pochodzenia danych jest Instytut Meteorologii i Gospodarki Wodnej – Państwowy Instytut Badawczy. Dane Instytutu Meteorologii i Gospodarki Wodnej – Państwowego Instytutu Badawczego zostały przetworzone.

Dane źródłowe można odnaleźć na stronie https://dane.imgw.pl